Time;durP1;ratioP1;P1;durP2;ratioP2;P2;SDS_P1;SDS_P2;PMS_P1;PMS_P2;Temp;Humidity;BMP_temperature;BMP_pressure;BME280_temperature;BME280_humidity;BME280_pressure;Samples;Min_cycle;Max_cycle;Signal;HPM_P1;HPM_P2
2021/05/17 00:00:15;;;;;;;20.65;12.93;;;6.50;99.90;;;;;;4953774;28;20533;-77
2021/05/17 00:02:42;;;;;;;22.38;13.48;;;6.50;99.90;;;;;;4953668;28;20515;-77
2021/05/17 00:05:09;;;;;;;20.80;12.13;;;6.50;99.90;;;;;;4955113;28;20098;-78
2021/05/17 00:07:36;;;;;;;28.40;15.15;;;6.50;99.90;;;;;;4954948;28;20396;-78
2021/05/17 00:10:04;;;;;;;29.17;13.32;;;6.40;99.90;;;;;;4955097;29;20063;-77
2021/05/17 00:12:30;;;;;;;26.48;13.60;;;6.50;99.90;;;;;;4954755;28;20114;-78
2021/05/17 00:14:56;;;;;;;24.52;13.85;;;6.40;99.90;;;;;;4954821;28;20123;-78
2021/05/17 00:17:22;;;;;;;27.85;15.98;;;6.40;99.90;;;;;;4955040;28;20055;-77
2021/05/17 00:19:48;;;;;;;28.83;15.65;;;6.50;99.90;;;;;;4954952;28;20062;-78
2021/05/17 00:22:14;;;;;;;30.08;16.17;;;6.50;99.90;;;;;;4954575;28;20472;-77
2021/05/17 00:24:40;;;;;;;30.08;15.85;;;6.50;99.90;;;;;;4969052;28;20046;-78
2021/05/17 00:27:06;;;;;;;30.85;16.35;;;6.50;99.90;;;;;;4954481;28;20023;-77
2021/05/17 00:29:32;;;;;;;41.10;19.60;;;6.50;99.90;;;;;;4954835;28;20369;-77
2021/05/17 00:31:59;;;;;;;50.97;22.58;;;6.60;99.90;;;;;;4954399;28;20530;-77
2021/05/17 00:34:24;;;;;;;57.83;23.50;;;6.70;99.90;;;;;;4954443;28;20030;-77
2021/05/17 00:36:50;;;;;;;44.20;21.23;;;6.80;99.90;;;;;;4952964;29;20122;-77
2021/05/17 00:39:17;;;;;;;45.35;21.65;;;6.80;99.90;;;;;;4954493;29;20082;-77
2021/05/17 00:41:43;;;;;;;47.92;22.73;;;6.90;99.90;;;;;;4953268;29;20469;-77
2021/05/17 00:44:09;;;;;;;40.83;19.83;;;6.90;99.90;;;;;;4954329;29;20106;-77
2021/05/17 00:46:36;;;;;;;35.92;18.40;;;6.90;99.90;;;;;;4954578;28;20015;-77
2021/05/17 00:49:02;;;;;;;33.75;16.67;;;6.90;99.90;;;;;;4954528;28;20055;-77
2021/05/17 00:51:28;;;;;;;38.75;18.02;;;6.90;99.90;;;;;;4953290;29;20134;-77
2021/05/17 00:53:55;;;;;;;41.05;14.82;;;6.80;99.90;;;;;;4968700;28;20110;-77
2021/05/17 00:56:21;;;;;;;27.55;13.45;;;6.80;99.90;;;;;;4954419;28;20032;-77
2021/05/17 00:58:48;;;;;;;27.40;13.32;;;6.80;99.90;;;;;;4954274;28;20106;-77
2021/05/17 01:01:15;;;;;;;24.00;13.27;;;6.80;99.90;;;;;;4954131;28;20019;-77
2021/05/17 01:03:40;;;;;;;30.90;15.73;;;6.90;99.90;;;;;;4953792;28;20073;-77
2021/05/17 01:06:06;;;;;;;32.10;16.25;;;6.90;99.90;;;;;;4954133;29;20055;-77
2021/05/17 01:08:58;;;;;;;27.95;15.05;;;6.90;99.90;;;;;;4953797;29;20039;-77
2021/05/17 01:11:26;;;;;;;28.33;15.02;;;6.80;99.90;;;;;;4952282;28;20027;-77
2021/05/17 01:13:52;;;;;;;27.70;15.15;;;6.70;99.90;;;;;;4953614;28;20064;-77
2021/05/17 01:16:19;;;;;;;28.15;14.65;;;6.60;99.90;;;;;;4968391;28;20098;-77
2021/05/17 01:18:48;;;;;;;25.67;14.25;;;6.60;99.90;;;;;;4952801;29;20122;-77
2021/05/17 01:21:17;;;;;;;54.95;16.42;;;6.50;99.90;;;;;;4953789;28;20031;-77
2021/05/17 01:23:50;;;;;;;79.05;19.58;;;6.40;99.90;;;;;;4948816;29;20036;-77
2021/05/17 01:26:16;;;;;;;25.30;13.95;;;6.40;99.90;;;;;;4935657;29;20027;-77
2021/05/17 01:28:42;;;;;;;30.95;15.25;;;6.40;99.90;;;;;;4953839;28;20385;-77
2021/05/17 01:31:10;;;;;;;18.45;11.13;;;6.30;99.90;;;;;;4953833;28;20473;-77
2021/05/17 01:33:41;;;;;;;12.70;8.35;;;6.30;99.90;;;;;;4952166;29;20031;-77
2021/05/17 01:36:08;;;;;;;16.88;9.15;;;6.20;99.90;;;;;;4953774;28;20027;-77
2021/05/17 01:38:36;;;;;;;32.47;11.95;;;6.10;99.90;;;;;;4953261;28;20039;-77
2021/05/17 01:41:07;;;;;;;17.95;10.00;;;6.20;99.90;;;;;;4934556;29;20062;-77
2021/05/17 01:43:36;;;;;;;33.22;10.60;;;6.10;99.90;;;;;;4934576;29;20445;-78
2021/05/17 01:46:03;;;;;;;13.68;9.30;;;6.10;99.90;;;;;;4934340;29;20080;-77
2021/05/17 01:48:29;;;;;;;10.90;7.93;;;6.10;99.90;;;;;;4934560;29;20035;-77
2021/05/17 01:50:55;;;;;;;43.60;7.10;;;6.10;99.90;;;;;;4950541;29;20477;-77
2021/05/17 01:53:22;;;;;;;9.55;8.18;;;6.00;99.90;;;;;;4953437;28;20038;-77
2021/05/17 01:55:48;;;;;;;15.88;7.70;;;5.90;99.90;;;;;;4953506;28;20523;-77
2021/05/17 01:58:23;;;;;;;29.42;8.95;;;5.80;99.90;;;;;;4953650;28;20074;-77
2021/05/17 02:00:50;;;;;;;22.67;10.65;;;5.80;99.90;;;;;;4953014;28;20028;-77
2021/05/17 02:03:16;;;;;;;17.10;10.70;;;5.80;99.90;;;;;;4953668;28;20408;-77
2021/05/17 02:05:42;;;;;;;56.50;12.90;;;5.80;99.90;;;;;;4953396;28;20030;-77
2021/05/17 02:08:11;;;;;;;26.27;11.93;;;5.70;99.90;;;;;;4953272;28;20034;-77
2021/05/17 02:10:39;;;;;;;24.05;13.70;;;5.70;99.90;;;;;;4952258;29;20544;-77
2021/05/17 02:13:07;;;;;;;22.13;12.85;;;5.70;99.90;;;;;;4952032;29;20023;-77
2021/05/17 02:15:34;;;;;;;40.70;12.20;;;5.60;99.90;;;;;;4951959;29;20027;-77
2021/05/17 02:18:05;;;;;;;176.98;12.10;;;5.70;99.90;;;;;;4952422;28;20023;-77
2021/05/17 02:20:33;;;;;;;70.88;13.98;;;5.60;99.90;;;;;;4953405;28;20030;-77
2021/05/17 02:23:01;;;;;;;34.92;14.82;;;5.60;99.90;;;;;;4952769;28;20059;-77
2021/05/17 02:25:27;;;;;;;25.70;13.10;;;5.70;99.90;;;;;;4956853;28;20078;-77
2021/05/17 02:27:54;;;;;;;23.92;13.05;;;5.80;99.90;;;;;;4956699;28;20024;-77
2021/05/17 02:30:20;;;;;;;20.15;11.35;;;5.70;99.90;;;;;;4956916;28;20035;-77
2021/05/17 02:32:46;;;;;;;17.40;10.45;;;5.70;99.90;;;;;;4956848;29;20579;-77
2021/05/17 02:35:12;;;;;;;20.08;10.55;;;5.60;99.90;;;;;;4956683;29;20102;-77
2021/05/17 02:37:37;;;;;;;17.83;9.80;;;5.60;99.90;;;;;;4955978;29;20089;-77
2021/05/17 02:40:05;;;;;;;54.60;16.77;;;5.50;99.90;;;;;;4955618;29;20483;-77
2021/05/17 02:42:33;;;;;;;45.13;14.45;;;5.60;99.90;;;;;;4956103;28;20019;-77
2021/05/17 02:44:59;;;;;;;24.73;12.00;;;5.60;99.90;;;;;;4956461;28;20038;-77
2021/05/17 02:47:25;;;;;;;98.75;13.10;;;5.70;99.90;;;;;;4952027;29;20023;-77
2021/05/17 02:49:53;;;;;;;32.25;11.43;;;5.70;99.90;;;;;;4937416;29;20020;-77
2021/05/17 02:52:19;;;;;;;44.28;15.18;;;5.70;99.90;;;;;;4941741;29;20400;-77
2021/05/17 02:55:01;;;;;;;26.10;14.25;;;5.70;99.90;;;;;;4956173;29;20031;-77
2021/05/17 02:57:48;;;;;;;36.20;15.55;;;5.80;99.90;;;;;;4956371;28;20399;-77
2021/05/17 03:00:17;;;;;;;37.45;16.70;;;5.90;99.90;;;;;;4955102;29;20028;-77
2021/05/17 03:03:10;;;;;;;31.50;15.45;;;6.00;99.90;;;;;;4955074;28;20039;-77
2021/05/17 03:05:39;;;;;;;33.58;16.40;;;6.10;99.90;;;;;;4956201;29;20062;-77
2021/05/17 03:08:19;;;;;;;31.52;16.05;;;6.20;99.90;;;;;;4956069;28;20038;-77
2021/05/17 03:10:46;;;;;;;40.80;16.35;;;6.20;99.90;;;;;;4955149;29;20024;-77
2021/05/17 03:13:18;;;;;;;31.13;14.45;;;6.20;99.90;;;;;;4955053;29;20028;-77
2021/05/17 03:15:45;;;;;;;36.85;15.55;;;6.20;99.90;;;;;;4955907;28;20024;-77
2021/05/17 03:18:12;;;;;;;29.92;14.35;;;6.10;99.90;;;;;;4955900;28;20054;-77
2021/05/17 03:20:38;;;;;;;28.38;15.07;;;6.00;99.90;;;;;;4956073;28;20031;-77
2021/05/17 03:23:22;;;;;;;30.65;12.77;;;6.00;99.90;;;;;;4951222;28;20118;-77
2021/05/17 03:25:48;;;;;;;32.47;14.60;;;6.00;99.90;;;;;;4936778;29;20481;-77
2021/05/17 03:28:15;;;;;;;27.58;13.13;;;6.00;99.90;;;;;;4943207;29;20046;-77
2021/05/17 03:30:41;;;;;;;32.20;14.13;;;5.90;99.90;;;;;;4970765;28;20399;-77
2021/05/17 03:33:06;;;;;;;30.02;15.18;;;5.90;99.90;;;;;;4955798;28;20038;-77
2021/05/17 03:35:32;;;;;;;34.75;16.17;;;6.00;99.90;;;;;;4953755;28;20046;-77
2021/05/17 03:37:58;;;;;;;42.15;18.25;;;6.20;99.90;;;;;;4955339;28;20039;-77
2021/05/17 03:40:24;;;;;;;44.05;19.65;;;6.30;99.90;;;;;;4970645;28;20381;-77
2021/05/17 03:42:49;;;;;;;47.85;19.55;;;6.40;99.90;;;;;;4954199;28;20492;-77
2021/05/17 03:45:15;;;;;;;50.50;21.48;;;6.50;99.90;;;;;;4955490;28;20031;-77
2021/05/17 03:47:41;;;;;;;48.95;21.95;;;6.60;99.90;;;;;;4955421;28;20070;-77
2021/05/17 03:50:09;;;;;;;48.13;22.38;;;6.70;99.90;;;;;;4955481;29;20484;-77
2021/05/17 03:52:35;;;;;;;40.45;19.15;;;6.70;99.90;;;;;;4955137;28;20031;-77
2021/05/17 03:55:00;;;;;;;44.28;20.48;;;6.80;99.90;;;;;;4955269;28;20114;-77
2021/05/17 03:57:26;;;;;;;54.75;22.98;;;6.90;99.90;;;;;;4955150;28;20039;-77
2021/05/17 03:59:52;;;;;;;41.65;19.83;;;6.90;99.90;;;;;;4970240;28;20027;-77
2021/05/17 04:02:22;;;;;;;46.70;21.73;;;6.90;99.90;;;;;;4955196;29;20086;-77
2021/05/17 04:05:23;;;;;;;53.45;21.17;;;6.90;99.90;;;;;;4955013;29;20027;-77
2021/05/17 04:15:43;;;;;;;61.17;23.23;;;7.00;99.90;;;;;;4954952;29;20038;-77
2021/05/17 04:18:08;;;;;;;61.72;24.85;;;7.10;99.90;;;;;;4953412;29;20035;-77
2021/05/17 04:20:34;;;;;;;63.22;23.02;;;7.20;99.90;;;;;;4954950;29;20027;-77
2021/05/17 04:23:00;;;;;;;69.40;28.67;;;7.30;99.90;;;;;;4954486;29;20074;-77
2021/05/17 04:25:25;;;;;;;74.43;31.17;;;7.40;99.90;;;;;;4954764;28;20106;-77
2021/05/17 04:27:51;;;;;;;75.85;30.60;;;7.50;99.90;;;;;;4954615;28;20035;-77
2021/05/17 04:30:17;;;;;;;81.97;31.50;;;7.50;99.90;;;;;;4953509;29;20035;-77
2021/05/17 04:32:43;;;;;;;83.50;30.73;;;7.60;99.90;;;;;;4954579;28;20038;-77
2021/05/17 04:35:09;;;;;;;81.80;33.03;;;7.60;99.90;;;;;;4969357;28;20027;-77
2021/05/17 04:37:34;;;;;;;76.35;32.70;;;7.70;99.90;;;;;;4954206;29;20043;-77
2021/05/17 04:40:00;;;;;;;64.65;28.55;;;7.70;99.90;;;;;;4954513;28;20031;-77
2021/05/17 04:42:26;;;;;;;73.28;31.42;;;7.80;99.90;;;;;;4954565;29;20027;-77
2021/05/17 04:44:51;;;;;;;67.00;28.98;;;7.90;99.90;;;;;;4953056;29;20032;-77
2021/05/17 04:47:17;;;;;;;66.57;29.70;;;8.00;99.90;;;;;;4953291;28;20500;-77
2021/05/17 04:49:42;;;;;;;82.35;32.10;;;8.10;99.90;;;;;;4954511;28;20028;-77
2021/05/17 04:52:08;;;;;;;70.35;32.08;;;8.10;99.90;;;;;;4952822;28;20027;-77
2021/05/17 04:54:34;;;;;;;67.82;28.67;;;8.20;99.90;;;;;;4954189;29;20035;-77
2021/05/17 04:56:59;;;;;;;68.68;31.10;;;8.20;99.90;;;;;;4969140;28;20031;-77
2021/05/17 04:59:25;;;;;;;60.38;29.13;;;8.20;99.90;;;;;;4954067;29;20110;-77
2021/05/17 05:01:51;;;;;;;68.35;30.80;;;8.30;99.90;;;;;;4952836;28;20085;-77
2021/05/17 05:04:16;;;;;;;63.08;28.23;;;8.30;99.90;;;;;;4952704;29;20123;-77
2021/05/17 05:06:42;;;;;;;70.75;32.97;;;8.30;99.90;;;;;;4954010;28;20026;-77
2021/05/17 05:09:07;;;;;;;71.65;32.50;;;8.50;99.90;;;;;;4954174;29;20031;-77
2021/05/17 05:11:33;;;;;;;63.97;29.27;;;8.40;99.90;;;;;;4954106;29;20028;-77
2021/05/17 05:13:59;;;;;;;63.88;32.08;;;8.40;99.90;;;;;;4952620;29;20034;-77
2021/05/17 05:16:24;;;;;;;83.88;34.88;;;8.40;99.90;;;;;;4953924;29;20392;-77
2021/05/17 05:18:50;;;;;;;78.65;35.08;;;8.50;99.90;;;;;;4953728;29;20027;-77
2021/05/17 05:21:16;;;;;;;74.72;36.05;;;8.60;99.90;;;;;;4953990;28;20384;-77
2021/05/17 05:23:41;;;;;;;89.43;41.30;;;8.70;99.90;;;;;;4953596;28;20035;-77
2021/05/17 05:34:01;;;;;;;83.88;41.33;;;9.20;99.90;;;;;;4953842;28;20027;-77
2021/05/17 05:36:26;;;;;;;74.85;37.83;;;9.20;99.90;;;;;;4953815;28;20032;-77
2021/05/17 05:38:52;;;;;;;95.35;43.97;;;9.30;99.90;;;;;;4953449;28;20075;-77
2021/05/17 05:41:17;;;;;;;98.07;45.72;;;9.50;99.90;;;;;;4953699;29;20516;-77
2021/05/17 05:43:43;;;;;;;90.45;45.83;;;9.60;99.90;;;;;;4953415;29;20057;-77
2021/05/17 05:46:08;;;;;;;91.55;47.72;;;9.70;99.90;;;;;;4953681;29;20027;-77
2021/05/17 05:48:47;;;;;;;93.78;49.35;;;9.70;99.90;;;;;;4953445;29;20027;-77
2021/05/17 05:51:23;;;;;;;101.90;50.55;;;9.60;99.90;;;;;;4968694;28;20030;-77
2021/05/17 05:53:50;;;;;;;85.65;46.95;;;9.70;99.90;;;;;;4951983;29;20039;-77
2021/05/17 05:56:16;;;;;;;98.80;48.70;;;9.80;99.90;;;;;;4953698;28;20469;-77
2021/05/17 05:58:43;;;;;;;93.68;47.88;;;10.00;99.90;;;;;;4955567;28;20071;-77
2021/05/17 06:01:09;;;;;;;89.43;48.25;;;10.10;99.90;;;;;;4955811;28;20551;-77
2021/05/17 06:03:35;;;;;;;82.80;45.30;;;10.20;99.90;;;;;;4957031;28;20428;-77
2021/05/17 06:06:01;;;;;;;78.72;44.75;;;10.20;99.90;;;;;;4955805;29;20028;-78
2021/05/17 06:08:27;;;;;;;72.97;43.00;;;10.20;99.90;;;;;;4956823;29;20532;-77
2021/05/17 06:10:53;;;;;;;77.70;42.90;;;10.10;99.90;;;;;;4957110;29;20081;-77
2021/05/17 06:13:19;;;;;;;78.20;44.38;;;10.20;99.90;;;;;;4957146;28;20031;-77
2021/05/17 06:15:46;;;;;;;74.57;42.30;;;10.20;99.90;;;;;;4956876;29;20032;-77
2021/05/17 06:18:13;;;;;;;70.22;41.03;;;10.00;99.90;;;;;;4952385;29;20086;-77
2021/05/17 06:20:39;;;;;;;73.28;40.10;;;9.90;99.90;;;;;;4952705;29;20527;-77
2021/05/17 06:23:07;;;;;;;77.68;41.40;;;10.00;99.90;;;;;;4949108;29;20043;-78
2021/05/17 06:25:33;;;;;;;85.35;46.83;;;10.10;99.90;;;;;;4955544;29;20480;-78
2021/05/17 06:27:59;;;;;;;76.00;43.83;;;10.20;99.90;;;;;;4971398;28;20035;-77
2021/05/17 06:30:27;;;;;;;67.13;40.53;;;10.50;99.90;;;;;;4956861;28;20496;-78
2021/05/17 06:32:53;;;;;;;61.88;36.90;;;10.60;99.90;;;;;;4971648;28;20023;-77
2021/05/17 06:35:28;;;;;;;60.33;36.63;;;10.80;99.90;;;;;;4956711;29;20054;-78
2021/05/17 06:37:53;;;;;;;51.17;33.15;;;10.60;99.90;;;;;;4956378;28;20544;-78
2021/05/17 06:40:20;;;;;;;50.20;33.03;;;10.70;99.90;;;;;;4956680;29;20023;-77
2021/05/17 06:42:46;;;;;;;51.75;33.10;;;11.00;99.90;;;;;;4971538;28;20114;-77
2021/05/17 06:45:12;;;;;;;44.03;30.85;;;11.10;99.90;;;;;;4956246;28;20082;-77
2021/05/17 06:47:38;;;;;;;44.22;27.48;;;11.10;99.90;;;;;;4971116;28;20473;-78
2021/05/17 06:50:07;;;;;;;42.38;28.65;;;11.10;99.90;;;;;;4956479;28;20051;-78
2021/05/17 06:52:33;;;;;;;42.15;28.30;;;11.30;99.90;;;;;;4954890;28;20023;-78
2021/05/17 06:55:05;;;;;;;44.25;27.40;;;11.40;99.90;;;;;;4956350;28;20110;-78
2021/05/17 07:00:25;;;;;;;46.05;28.05;;;11.50;99.90;;;;;;4956628;29;20093;-78
2021/05/17 07:02:51;;;;;;;44.50;29.15;;;11.30;99.90;;;;;;4956211;28;20031;-78
2021/05/17 07:05:22;;;;;;;38.85;26.10;;;11.30;99.90;;;;;;4956042;28;20027;-77
2021/05/17 07:13:09;;;;;;;31.02;19.60;;;11.60;99.90;;;;;;4951516;28;20034;-77
2021/05/17 07:15:34;;;;;;;32.47;17.50;;;11.60;99.90;;;;;;4957160;28;20027;-77
2021/05/17 07:18:00;;;;;;;30.27;17.98;;;11.80;99.90;;;;;;4950767;29;20034;-77
2021/05/17 07:26:02;;;;;;;32.85;21.35;;;11.50;99.90;;;;;;4955713;29;20089;-77
2021/05/17 07:28:28;;;;;;;40.78;24.55;;;11.40;99.90;;;;;;4954047;29;20026;-77
2021/05/17 07:30:54;;;;;;;35.33;24.15;;;11.40;99.90;;;;;;4970555;28;20019;-77
2021/05/17 07:33:19;;;;;;;37.45;22.23;;;11.30;99.90;;;;;;4954597;29;20028;-77
2021/05/17 07:35:45;;;;;;;39.05;23.35;;;11.20;99.90;;;;;;4955529;29;20027;-77
2021/05/17 07:38:11;;;;;;;32.45;20.85;;;11.30;99.90;;;;;;4955240;29;20035;-77
2021/05/17 07:40:37;;;;;;;34.47;20.63;;;11.30;99.90;;;;;;4955362;28;20062;-77
2021/05/17 07:43:03;;;;;;;34.40;21.70;;;11.40;99.90;;;;;;4955492;29;20511;-78
2021/05/17 07:45:29;;;;;;;33.38;20.88;;;11.40;99.90;;;;;;4954453;28;20035;-77
2021/05/17 07:47:55;;;;;;;30.77;20.08;;;11.40;99.90;;;;;;4955011;29;20023;-77
2021/05/17 07:50:21;;;;;;;26.73;16.88;;;11.60;99.90;;;;;;4955528;29;20539;-77
2021/05/17 07:52:46;;;;;;;28.75;17.13;;;11.60;99.90;;;;;;4954895;29;20476;-77
2021/05/17 07:55:13;;;;;;;29.25;15.90;;;11.80;99.90;;;;;;4954007;29;20082;-77
2021/05/17 07:57:39;;;;;;;31.40;17.40;;;12.00;99.90;;;;;;4955173;28;20027;-77
2021/05/17 08:00:08;;;;;;;27.00;15.60;;;12.10;99.90;;;;;;4954235;29;20034;-77
2021/05/17 08:02:33;;;;;;;34.03;18.42;;;12.20;99.90;;;;;;4954272;28;20082;-78
2021/05/17 08:04:59;;;;;;;36.88;18.98;;;12.30;99.90;;;;;;4954790;29;20485;-77
2021/05/17 08:07:25;;;;;;;26.55;16.05;;;12.10;99.90;;;;;;4954898;28;20026;-78
2021/05/17 08:09:52;;;;;;;24.38;13.98;;;12.30;99.90;;;;;;4955025;29;20079;-77
2021/05/17 08:12:20;;;;;;;26.33;10.77;;;12.50;99.90;;;;;;4953770;29;20404;-78
2021/05/17 08:14:46;;;;;;;22.67;10.73;;;12.80;99.90;;;;;;4954932;28;20089;-77
2021/05/17 08:17:11;;;;;;;24.60;11.55;;;12.90;99.90;;;;;;4955079;29;20110;-78
2021/05/17 08:19:37;;;;;;;20.15;11.23;;;12.90;99.90;;;;;;4950452;29;20034;-78
2021/05/17 08:22:04;;;;;;;30.35;13.23;;;12.90;99.90;;;;;;4939635;28;20058;-78
2021/05/17 08:24:30;;;;;;;23.95;13.45;;;13.00;99.90;;;;;;4954327;29;20035;-78
2021/05/17 08:26:56;;;;;;;27.58;14.00;;;12.90;99.90;;;;;;4955006;29;20130;-78
2021/05/17 08:29:22;;;;;;;25.30;12.95;;;12.90;99.90;;;;;;4955121;29;20086;-78
2021/05/17 08:31:50;;;;;;;27.58;12.38;;;13.00;99.90;;;;;;4953521;29;20118;-78
2021/05/17 08:34:16;;;;;;;27.80;11.38;;;13.00;99.90;;;;;;4954439;29;20055;-78
2021/05/17 08:36:42;;;;;;;25.13;12.02;;;12.80;99.90;;;;;;4954622;29;20396;-78
2021/05/17 08:39:09;;;;;;;24.10;11.65;;;13.10;99.90;;;;;;4954567;29;20039;-76
2021/05/17 08:41:36;;;;;;;21.13;9.52;;;13.30;99.90;;;;;;4954444;29;20030;-78
2021/05/17 08:44:07;;;;;;;27.42;11.20;;;13.30;99.90;;;;;;4954247;28;20451;-78
2021/05/17 08:46:33;;;;;;;23.48;10.82;;;13.30;99.90;;;;;;4954470;28;20111;-78
2021/05/17 08:49:00;;;;;;;23.10;9.95;;;13.40;99.90;;;;;;4954387;28;20404;-78
2021/05/17 08:51:28;;;;;;;20.98;9.15;;;13.90;99.90;;;;;;4953120;28;20050;-78
2021/05/17 08:53:58;;;;;;;31.90;11.27;;;14.10;99.90;;;;;;4954241;28;20035;-78
2021/05/17 08:56:24;;;;;;;24.25;11.07;;;14.20;99.90;;;;;;4954153;28;20023;-78
2021/05/17 08:58:58;;;;;;;25.85;9.90;;;14.00;99.90;;;;;;4954059;28;20031;-78
2021/05/17 09:01:24;;;;;;;30.08;10.10;;;14.10;99.90;;;;;;4954021;28;20027;-77
2021/05/17 09:03:53;;;;;;;24.80;9.02;;;14.40;99.90;;;;;;4953908;29;20538;-78
2021/05/17 09:06:22;;;;;;;22.65;9.70;;;14.60;99.90;;;;;;4954274;29;20372;-78
2021/05/17 09:08:48;;;;;;;25.33;9.77;;;14.50;99.90;;;;;;4954203;29;20015;-78
2021/05/17 09:11:29;;;;;;;33.25;10.02;;;14.20;99.90;;;;;;4942909;28;20019;-79
2021/05/17 09:14:12;;;;;;;25.50;10.30;;;14.10;99.90;;;;;;4950905;28;20031;-78
2021/05/17 09:16:46;;;;;;;22.88;9.43;;;13.90;99.90;;;;;;4943125;28;20030;-78
2021/05/17 09:19:12;;;;;;;23.77;10.02;;;14.10;99.90;;;;;;4949683;29;20094;-78
2021/05/17 09:21:58;;;;;;;27.75;9.13;;;14.20;99.90;;;;;;4948243;29;20043;-78
2021/05/17 09:24:32;;;;;;;22.23;8.07;;;14.50;99.90;;;;;;4949237;29;20031;-79
2021/05/17 09:26:58;;;;;;;19.70;7.60;;;14.60;99.90;;;;;;4949183;29;20111;-78
2021/05/17 09:29:24;;;;;;;27.10;8.38;;;14.60;99.90;;;;;;4951479;28;20087;-78
2021/05/17 09:31:49;;;;;;;23.05;8.70;;;14.60;99.90;;;;;;4947945;28;20027;-78
2021/05/17 09:34:15;;;;;;;16.35;7.72;;;14.70;99.90;;;;;;4963430;28;20034;-79
2021/05/17 09:36:40;;;;;;;27.42;7.95;;;14.70;99.90;;;;;;4964386;28;20445;-79
2021/05/17 09:39:12;;;;;;;24.85;7.57;;;15.00;99.90;;;;;;4964423;28;20031;-79
2021/05/17 09:41:44;;;;;;;34.88;7.63;;;15.40;99.90;;;;;;4949221;28;20092;-79
2021/05/17 09:44:12;;;;;;;19.02;7.18;;;15.80;99.90;;;;;;4949116;29;20028;-79
2021/05/17 09:46:57;;;;;;;18.98;6.95;;;16.30;99.90;;;;;;4948338;29;20118;-79
2021/05/17 09:49:39;;;;;;;18.67;6.88;;;16.20;99.90;;;;;;4948078;29;20440;-79
2021/05/17 09:52:13;;;;;;;18.95;6.40;;;16.30;99.90;;;;;;4948256;29;20027;-80
2021/05/17 09:55:06;;;;;;;22.95;7.28;;;16.00;99.90;;;;;;4948257;29;20496;-79
2021/05/17 09:57:36;;;;;;;31.80;7.30;;;15.50;99.90;;;;;;4941579;29;20142;-79
2021/05/17 10:00:17;;;;;;;15.80;5.68;;;15.30;99.90;;;;;;4949095;28;20042;-79
2021/05/17 10:02:45;;;;;;;23.77;7.22;;;15.40;99.90;;;;;;4949397;28;20483;-79
2021/05/17 10:05:20;;;;;;;25.60;8.18;;;15.60;99.90;;;;;;4963873;28;20054;-80
2021/05/17 10:07:51;;;;;;;24.80;7.10;;;15.90;99.90;;;;;;4948264;29;20388;-79
2021/05/17 10:10:17;;;;;;;21.48;6.47;;;16.10;99.90;;;;;;4947581;29;20463;-79
2021/05/17 10:12:43;;;;;;;21.90;5.47;;;15.90;99.90;;;;;;4946108;28;20019;-80
2021/05/17 10:15:14;;;;;;;20.63;5.25;;;15.50;99.90;;;;;;4947735;29;20672;-80
2021/05/17 10:17:40;;;;;;;27.42;5.82;;;15.60;99.90;;;;;;4951559;29;20034;-78
2021/05/17 10:20:09;;;;;;;22.25;5.18;;;15.70;99.90;;;;;;4953384;28;20027;-79
2021/05/17 10:22:35;;;;;;;14.88;4.90;;;16.00;99.90;;;;;;4952024;28;20147;-79
2021/05/17 10:25:04;;;;;;;17.75;5.55;;;16.30;99.90;;;;;;4953022;28;20029;-79
2021/05/17 10:27:32;;;;;;;18.00;5.28;;;16.10;99.90;;;;;;4953352;28;20019;-79
2021/05/17 10:30:01;;;;;;;16.48;5.47;;;16.10;99.90;;;;;;4953273;28;20019;-78
2021/05/17 10:32:41;;;;;;;21.58;5.18;;;16.20;99.90;;;;;;4953271;28;20034;-78
2021/05/17 10:35:14;;;;;;;16.50;4.65;;;16.20;99.90;;;;;;4953049;28;20102;-80
2021/05/17 10:37:44;;;;;;;28.65;5.35;;;16.20;99.90;;;;;;4953150;28;20032;-79
2021/05/17 10:40:15;;;;;;;20.42;5.03;;;15.90;99.90;;;;;;4953496;28;20106;-79
2021/05/17 10:42:54;;;;;;;15.93;4.78;;;15.80;99.90;;;;;;4953279;28;20046;-79
2021/05/17 10:48:23;;;;;;;;;;;16.30;99.90;;;;;;4957075;29;20066;-80
2021/05/17 10:51:10;;;;;;;16.17;3.50;;;16.20;99.90;;;;;;4955351;28;19910;-80
2021/05/17 10:53:53;;;;;;;23.27;4.68;;;16.10;99.90;;;;;;4955331;29;20027;-80
2021/05/17 10:56:46;;;;;;;14.77;3.47;;;16.10;99.90;;;;;;4955217;29;20023;-80
2021/05/17 11:02:08;;;;;;;14.63;3.28;;;16.30;99.90;;;;;;4956729;29;20514;-80
2021/05/17 11:04:56;;;;;;;13.65;3.95;;;16.70;99.90;;;;;;4955084;29;20085;-80
2021/05/17 11:07:33;;;;;;;12.25;4.25;;;16.60;99.90;;;;;;4955077;29;20158;-80
2021/05/17 11:10:19;;;;;;;17.60;3.50;;;17.20;99.90;;;;;;4959772;29;20027;-79
2021/05/17 11:13:13;;;;;;;18.95;4.00;;;18.00;99.90;;;;;;4963759;29;20050;-79
2021/05/17 11:15:45;;;;;;;15.73;3.35;;;17.60;99.90;;;;;;4955522;29;20028;-79
2021/05/17 11:18:12;;;;;;;13.65;3.50;;;17.30;99.90;;;;;;4956044;29;20024;-80
2021/05/17 11:20:40;;;;;;;19.08;4.65;;;17.00;99.90;;;;;;4956062;29;20519;-80
2021/05/17 11:23:32;;;;;;;24.63;4.43;;;16.60;99.90;;;;;;4954448;29;20031;-79
2021/05/17 11:26:07;;;;;;;14.73;3.90;;;16.70;99.90;;;;;;4947588;29;20039;-80
2021/05/17 11:28:39;;;;;;;13.70;3.63;;;16.50;99.90;;;;;;4955937;29;20445;-80
2021/05/17 11:31:36;;;;;;;21.13;4.45;;;16.30;99.90;;;;;;4955911;29;20081;-79
2021/05/17 11:34:02;;;;;;;26.30;4.38;;;16.10;99.90;;;;;;4952380;29;20031;-81
2021/05/17 11:36:36;;;;;;;15.68;4.53;;;15.60;99.90;;;;;;4954625;29;20369;-78
2021/05/17 11:39:10;;;;;;;31.48;5.07;;;15.50;99.90;;;;;;4954333;29;20035;-78
2021/05/17 11:41:36;;;;;;;19.90;5.10;;;16.00;99.90;;;;;;4955733;29;20027;-77
2021/05/17 11:44:03;;;;;;;17.80;3.92;;;16.00;99.90;;;;;;4949852;28;20042;-77
2021/05/17 11:46:34;;;;;;;21.45;4.78;;;16.10;99.90;;;;;;4951434;28;20027;-78
2021/05/17 11:49:00;;;;;;;18.02;4.53;;;16.00;99.90;;;;;;4949977;29;20031;-78
2021/05/17 11:51:27;;;;;;;17.73;4.82;;;15.60;99.90;;;;;;4955109;28;20485;-79
2021/05/17 11:53:54;;;;;;;18.50;4.60;;;15.70;99.90;;;;;;4955278;29;20035;-79
2021/05/17 11:56:21;;;;;;;21.13;4.68;;;15.60;99.90;;;;;;4954876;28;20023;-80
2021/05/17 11:59:05;;;;;;;13.40;3.75;;;15.60;99.90;;;;;;4954925;28;20403;-80
2021/05/17 12:01:30;;;;;;;;;;;15.70;99.90;;;;;;4950818;28;20057;-80
2021/05/17 12:04:09;;;;;;;18.73;4.55;;;15.90;99.90;;;;;;4969815;28;19910;-80
2021/05/17 12:06:39;;;;;;;15.50;3.95;;;16.50;99.90;;;;;;4954018;29;20054;-80
2021/05/17 12:09:05;;;;;;;15.35;3.20;;;17.60;99.90;;;;;;4953922;29;20023;-80
2021/05/17 12:11:30;;;;;;;19.80;3.83;;;18.50;99.90;;;;;;4953768;28;20090;-80
2021/05/17 12:14:05;;;;;;;20.00;5.65;;;18.60;99.90;;;;;;4955045;29;20054;-80
2021/05/17 12:16:31;;;;;;;17.80;3.92;;;18.10;99.90;;;;;;4953838;29;20492;-80
2021/05/17 12:18:59;;;;;;;18.77;3.97;;;17.70;99.90;;;;;;4955076;29;20038;-83
2021/05/17 12:21:37;;;;;;;21.67;4.50;;;17.40;99.90;;;;;;4950213;28;20024;-81
2021/05/17 12:24:07;;;;;;;15.25;3.55;;;16.90;99.90;;;;;;4950216;29;20060;-80
2021/05/17 12:26:52;;;;;;;19.02;4.15;;;16.40;99.90;;;;;;4935808;29;20123;-79
2021/05/17 12:29:19;;;;;;;26.88;5.05;;;15.90;99.90;;;;;;4935806;29;20488;-79
2021/05/17 12:31:45;;;;;;;19.83;4.55;;;15.60;99.90;;;;;;4935589;29;20024;-79
2021/05/17 12:34:11;;;;;;;14.05;4.53;;;15.50;99.90;;;;;;4935293;29;20161;-81
2021/05/17 12:36:37;;;;;;;19.92;5.22;;;15.40;99.90;;;;;;4935666;29;20055;-81
2021/05/17 12:39:04;;;;;;;12.63;4.28;;;15.20;99.90;;;;;;4962540;28;20035;-81
2021/05/17 12:41:38;;;;;;;18.63;5.65;;;15.20;99.90;;;;;;4953325;28;20027;-81
2021/05/17 12:44:23;;;;;;;;;;;15.30;99.90;;;;;;4953484;29;20535;-81
2021/05/17 12:47:04;;;;;;;20.88;4.43;;;15.30;99.90;;;;;;4954531;28;19914;-81
2021/05/17 12:49:46;;;;;;;17.50;4.90;;;15.20;99.90;;;;;;4954499;28;20023;-82
2021/05/17 12:52:23;;;;;;;20.65;4.80;;;15.20;99.90;;;;;;4953116;28;20023;-82
2021/05/17 12:55:09;;;;;;;18.58;5.25;;;15.40;99.90;;;;;;4954141;28;20031;-82
2021/05/17 12:57:46;;;;;;;26.65;6.97;;;15.50;99.90;;;;;;4954263;28;20098;-82
2021/05/17 13:00:12;;;;;;;17.75;5.10;;;15.80;99.90;;;;;;4949528;29;20027;-82
2021/05/17 13:02:38;;;;;;;20.35;5.22;;;15.80;99.90;;;;;;4934249;29;20571;-81
2021/05/17 13:05:05;;;;;;;22.17;6.57;;;16.00;99.90;;;;;;4952370;29;20032;-82
2021/05/17 13:07:31;;;;;;;16.80;5.13;;;16.00;99.90;;;;;;4968343;28;20443;-83
2021/05/17 13:09:58;;;;;;;13.80;4.07;;;16.30;99.90;;;;;;4954096;28;20023;-82
2021/05/17 13:12:24;;;;;;;14.43;4.45;;;16.30;99.90;;;;;;4949223;28;20028;-82
2021/05/17 13:14:49;;;;;;;16.90;5.00;;;16.10;99.90;;;;;;4933625;29;20079;-82
2021/05/17 13:17:16;;;;;;;12.10;3.90;;;16.50;99.90;;;;;;4934953;29;20034;-82
2021/05/17 13:30:57;;;;;;;13.57;4.30;;;15.60;99.90;;;;;;4953644;28;20596;-82